Airfield :
LOGIN :

Register | Disclaimer

   EN    FR    IT 

 










Legend :    VFR   Marginal VFR   IFR   Intensive IFR   Very Intensive IFR
Visi :
Ceiling :
>= 8 km
>= 3000ft
5 to 8 km
1000 to 3000 ft
1500m to 5 km
500 to 1000 ft
800 to 1500m
200 to 500 ft
< 800m
< 200 ft
Symbols :   Thunderstorms  Fog  Heavy snow  Heavy precipitations  Wind > 20 kt
SIGMETs :     Misc.  Thunderstorms  Icing  Turbulence  Mountain Waves  Volcanic Ashes






- Airport Elevation : 1058 ft
- IATA code : SCN


EDDR - Saarbrücken

CURRENT METAR :
  • 211420Z AUTO 05016KT 010V080 9999 -DZ BKN019 BKN039 05/01 Q1020 TEMPO 05015G25KT

EXPIRED METARs :
  • 211350Z AUTO 04015G28KT 360V070 9999 SCT017 BKN021 05/02 Q1020 NOSIG
  • 211320Z AUTO 02014KT 350V060 9999 -RA SCT018 BKN024 BKN035 05/01 Q1019 RESN TEMPO BKN014
  • 211250Z AUTO 36014KT 330V030 9999 FEW025 BKN042 05/01 Q1019 REUP TEMPO BKN014
  • 211220Z AUTO 36011KT 320V050 9999 -SHRA SCT026 BKN038 FEW///CB 06/01 Q1019 RESHSN NOSIG
  • 211150Z AUTO 34008KT 300V040 9999 FEW023 05/00 Q1019 TEMPO 4000 -SHSNRA
  • 211120Z AUTO 35006KT 280V030 9999 FEW006 SCT019 BKN046 04/01 Q1019 RESHSN TEMPO 4000 -SHSNRA BKN025TCU
  • 211050Z AUTO 34012KT 290V010 9999 SHSNRA FEW006 BKN030 BKN040 FEW///TCU 03/M00 Q1019 TEMPO SNRA
  • 211020Z AUTO 35006KT 270V030 9999 FEW037 BKN047 06/M02 Q1018 REUP TEMPO SHRA
  • 210950Z AUTO 32008KT 280V010 9999 SCT039 BKN047 05/M03 Q1019 TEMPO SHRA

TAF TAF EDDR
Valid from the 21 at 12:00 until the 22 at 12:00 UTC


211100Z 2112/2212 32008KT 9999 SCT040
BECMG 2112/2114 02009KT
PROB40
TEMPO 2112/2118 02015G25KT 4500 SHRAGS SCT014 BKN020CB



MET'MAP, your aeronautical weather chart ! - Copyright ORBIFLY December 2007 - Disclaimer

ORBIFLY MET'MAP TEAM :

Programming & Development : Alexandra Zaïnal
Original concept : Baudouin d'Aumeries
Technical & hardware support : Manuel Goepfert
Assistance : Marc-Olivier Méhu




SOURCES & CREDITS :

   NOAA